sensor_id;sensor_type;location;lat;lon;timestamp;temperature;humidity
21612;DHT22;47005;52.292;13.452;2023-04-24T00:01:28;14.20;92.10
21612;DHT22;47005;52.292;13.452;2023-04-24T00:03:55;14.20;92.10
21612;DHT22;47005;52.292;13.452;2023-04-24T00:06:27;14.20;92.30
21612;DHT22;47005;52.292;13.452;2023-04-24T00:09:02;14.20;92.40
21612;DHT22;47005;52.292;13.452;2023-04-24T00:11:29;14.20;92.00
21612;DHT22;47005;52.292;13.452;2023-04-24T00:13:55;14.10;92.10
21612;DHT22;47005;52.292;13.452;2023-04-24T00:16:22;14.10;92.40
21612;DHT22;47005;52.292;13.452;2023-04-24T00:18:48;14.10;92.40
21612;DHT22;47005;52.292;13.452;2023-04-24T00:21:14;14.10;92.30
21612;DHT22;47005;52.292;13.452;2023-04-24T00:23:43;14.00;92.40
21612;DHT22;47005;52.292;13.452;2023-04-24T00:26:09;14.00;92.30
21612;DHT22;47005;52.292;13.452;2023-04-24T00:28:35;14.00;92.30
21612;DHT22;47005;52.292;13.452;2023-04-24T00:31:00;14.00;92.40
21612;DHT22;47005;52.292;13.452;2023-04-24T00:33:26;14.00;92.40
21612;DHT22;47005;52.292;13.452;2023-04-24T00:35:52;14.00;92.60
21612;DHT22;47005;52.292;13.452;2023-04-24T00:38:18;13.90;92.60
21612;DHT22;47005;52.292;13.452;2023-04-24T00:40:43;13.90;93.00
21612;DHT22;47005;52.292;13.452;2023-04-24T00:43:09;13.90;93.00
21612;DHT22;47005;52.292;13.452;2023-04-24T00:45:35;13.90;92.90
21612;DHT22;47005;52.292;13.452;2023-04-24T00:48:04;13.80;93.00
21612;DHT22;47005;52.292;13.452;2023-04-24T00:50:30;13.80;92.80
21612;DHT22;47005;52.292;13.452;2023-04-24T00:52:57;13.80;92.90
21612;DHT22;47005;52.292;13.452;2023-04-24T00:55:23;13.70;93.10
21612;DHT22;47005;52.292;13.452;2023-04-24T00:57:49;13.70;93.20
21612;DHT22;47005;52.292;13.452;2023-04-24T01:00:16;13.70;93.30
21612;DHT22;47005;52.292;13.452;2023-04-24T01:02:43;13.70;93.20
21612;DHT22;47005;52.292;13.452;2023-04-24T01:05:11;13.70;93.80
21612;DHT22;47005;52.292;13.452;2023-04-24T01:07:39;13.80;93.70
21612;DHT22;47005;52.292;13.452;2023-04-24T01:10:05;13.70;93.80
21612;DHT22;47005;52.292;13.452;2023-04-24T01:12:32;13.70;94.00
21612;DHT22;47005;52.292;13.452;2023-04-24T01:14:57;13.70;94.30
21612;DHT22;47005;52.292;13.452;2023-04-24T01:17:23;13.70;94.00
21612;DHT22;47005;52.292;13.452;2023-04-24T01:19:49;13.70;94.20
21612;DHT22;47005;52.292;13.452;2023-04-24T01:22:15;13.70;94.00
21612;DHT22;47005;52.292;13.452;2023-04-24T01:24:42;13.70;94.10
21612;DHT22;47005;52.292;13.452;2023-04-24T01:27:09;13.70;94.10
21612;DHT22;47005;52.292;13.452;2023-04-24T01:29:35;13.60;94.00
21612;DHT22;47005;52.292;13.452;2023-04-24T01:32:02;13.60;94.10
21612;DHT22;47005;52.292;13.452;2023-04-24T01:34:28;13.60;94.10
21612;DHT22;47005;52.292;13.452;2023-04-24T01:36:53;13.60;94.00
21612;DHT22;47005;52.292;13.452;2023-04-24T01:39:19;13.60;94.70
21612;DHT22;47005;52.292;13.452;2023-04-24T01:41:46;13.60;94.30
21612;DHT22;47005;52.292;13.452;2023-04-24T01:44:11;13.60;94.30
21612;DHT22;47005;52.292;13.452;2023-04-24T01:46:37;13.50;94.30
21612;DHT22;47005;52.292;13.452;2023-04-24T01:49:03;13.50;93.90
21612;DHT22;47005;52.292;13.452;2023-04-24T01:51:29;13.50;93.90
21612;DHT22;47005;52.292;13.452;2023-04-24T01:53:55;13.50;93.70
21612;DHT22;47005;52.292;13.452;2023-04-24T01:56:22;13.50;93.80
21612;DHT22;47005;52.292;13.452;2023-04-24T01:58:49;13.50;94.30
21612;DHT22;47005;52.292;13.452;2023-04-24T02:01:19;13.50;93.90
21612;DHT22;47005;52.292;13.452;2023-04-24T02:03:45;13.50;93.90
21612;DHT22;47005;52.292;13.452;2023-04-24T02:06:11;13.50;94.10
21612;DHT22;47005;52.292;13.452;2023-04-24T02:08:37;13.50;94.20
21612;DHT22;47005;52.292;13.452;2023-04-24T02:11:02;13.50;94.20
21612;DHT22;47005;52.292;13.452;2023-04-24T02:13:28;13.50;94.20
21612;DHT22;47005;52.292;13.452;2023-04-24T02:15:54;13.50;94.40
21612;DHT22;47005;52.292;13.452;2023-04-24T02:18:20;13.50;94.20
21612;DHT22;47005;52.292;13.452;2023-04-24T02:20:46;13.50;94.30
21612;DHT22;47005;52.292;13.452;2023-04-24T02:23:11;13.50;94.30
21612;DHT22;47005;52.292;13.452;2023-04-24T02:25:38;13.50;94.70
21612;DHT22;47005;52.292;13.452;2023-04-24T02:28:04;13.50;94.40
21612;DHT22;47005;52.292;13.452;2023-04-24T02:30:29;13.50;94.50
21612;DHT22;47005;52.292;13.452;2023-04-24T02:32:55;13.50;94.50
21612;DHT22;47005;52.292;13.452;2023-04-24T02:35:21;13.50;94.60
21612;DHT22;47005;52.292;13.452;2023-04-24T02:37:47;13.50;94.60
21612;DHT22;47005;52.292;13.452;2023-04-24T02:40:12;13.50;94.70
21612;DHT22;47005;52.292;13.452;2023-04-24T02:42:38;13.50;94.70
21612;DHT22;47005;52.292;13.452;2023-04-24T02:45:04;13.50;94.80
21612;DHT22;47005;52.292;13.452;2023-04-24T02:47:30;13.50;94.80
21612;DHT22;47005;52.292;13.452;2023-04-24T02:49:56;13.50;94.70
21612;DHT22;47005;52.292;13.452;2023-04-24T02:52:22;13.50;94.80
21612;DHT22;47005;52.292;13.452;2023-04-24T02:54:47;13.50;94.80
21612;DHT22;47005;52.292;13.452;2023-04-24T02:57:13;13.50;95.00
21612;DHT22;47005;52.292;13.452;2023-04-24T02:59:38;13.50;94.90
21612;DHT22;47005;52.292;13.452;2023-04-24T03:02:04;13.50;94.90
21612;DHT22;47005;52.292;13.452;2023-04-24T03:04:31;13.50;95.10
21612;DHT22;47005;52.292;13.452;2023-04-24T03:06:57;13.50;95.00
21612;DHT22;47005;52.292;13.452;2023-04-24T03:09:23;13.50;95.00
21612;DHT22;47005;52.292;13.452;2023-04-24T03:11:49;13.50;95.00
21612;DHT22;47005;52.292;13.452;2023-04-24T03:14:15;13.50;95.50
21612;DHT22;47005;52.292;13.452;2023-04-24T03:16:41;13.50;95.30
21612;DHT22;47005;52.292;13.452;2023-04-24T03:19:07;13.40;95.70
21612;DHT22;47005;52.292;13.452;2023-04-24T03:21:33;13.50;95.60
21612;DHT22;47005;52.292;13.452;2023-04-24T03:23:59;13.40;95.80
21612;DHT22;47005;52.292;13.452;2023-04-24T03:26:24;13.50;95.40
21612;DHT22;47005;52.292;13.452;2023-04-24T03:28:50;13.50;95.30
21612;DHT22;47005;52.292;13.452;2023-04-24T03:31:16;13.50;95.30
21612;DHT22;47005;52.292;13.452;2023-04-24T03:33:42;13.50;95.50
21612;DHT22;47005;52.292;13.452;2023-04-24T03:36:08;13.50;95.30
21612;DHT22;47005;52.292;13.452;2023-04-24T03:38:33;13.50;95.90
21612;DHT22;47005;52.292;13.452;2023-04-24T03:40:59;13.50;96.40
21612;DHT22;47005;52.292;13.452;2023-04-24T03:43:24;13.50;96.60
21612;DHT22;47005;52.292;13.452;2023-04-24T03:45:51;13.50;97.00
21612;DHT22;47005;52.292;13.452;2023-04-24T03:48:16;13.50;96.30
21612;DHT22;47005;52.292;13.452;2023-04-24T03:50:42;13.50;96.00
21612;DHT22;47005;52.292;13.452;2023-04-24T03:53:08;13.50;96.10
21612;DHT22;47005;52.292;13.452;2023-04-24T03:55:34;13.50;96.40
21612;DHT22;47005;52.292;13.452;2023-04-24T03:57:59;13.50;96.30
21612;DHT22;47005;52.292;13.452;2023-04-24T04:00:25;13.50;96.70
21612;DHT22;47005;52.292;13.452;2023-04-24T04:02:51;13.50;96.60
21612;DHT22;47005;52.292;13.452;2023-04-24T04:05:17;13.50;96.40
21612;DHT22;47005;52.292;13.452;2023-04-24T04:07:43;13.50;97.00
21612;DHT22;47005;52.292;13.452;2023-04-24T04:10:09;13.50;97.20
21612;DHT22;47005;52.292;13.452;2023-04-24T04:12:34;13.50;97.10
21612;DHT22;47005;52.292;13.452;2023-04-24T04:15:00;13.50;97.30
21612;DHT22;47005;52.292;13.452;2023-04-24T04:17:25;13.50;96.60
21612;DHT22;47005;52.292;13.452;2023-04-24T04:19:51;13.50;96.90
21612;DHT22;47005;52.292;13.452;2023-04-24T04:22:17;13.50;97.20
21612;DHT22;47005;52.292;13.452;2023-04-24T04:24:42;13.50;97.00
21612;DHT22;47005;52.292;13.452;2023-04-24T04:27:08;13.50;96.90
21612;DHT22;47005;52.292;13.452;2023-04-24T04:29:34;13.50;96.70
21612;DHT22;47005;52.292;13.452;2023-04-24T04:32:00;13.50;97.00
21612;DHT22;47005;52.292;13.452;2023-04-24T04:34:26;13.60;97.70
21612;DHT22;47005;52.292;13.452;2023-04-24T04:36:52;13.50;97.20
21612;DHT22;47005;52.292;13.452;2023-04-24T04:39:18;13.50;97.20
21612;DHT22;47005;52.292;13.452;2023-04-24T04:41:44;13.60;96.80
21612;DHT22;47005;52.292;13.452;2023-04-24T04:44:12;13.60;96.80
21612;DHT22;47005;52.292;13.452;2023-04-24T04:46:38;13.60;97.10
21612;DHT22;47005;52.292;13.452;2023-04-24T04:49:04;13.60;96.90
21612;DHT22;47005;52.292;13.452;2023-04-24T04:51:30;13.60;96.60
21612;DHT22;47005;52.292;13.452;2023-04-24T04:53:56;13.60;96.80
21612;DHT22;47005;52.292;13.452;2023-04-24T04:56:22;13.60;96.90
21612;DHT22;47005;52.292;13.452;2023-04-24T04:58:48;13.60;96.70
21612;DHT22;47005;52.292;13.452;2023-04-24T05:01:13;13.60;97.00
21612;DHT22;47005;52.292;13.452;2023-04-24T05:03:39;13.70;97.20
21612;DHT22;47005;52.292;13.452;2023-04-24T05:06:05;13.70;97.20
21612;DHT22;47005;52.292;13.452;2023-04-24T05:08:31;13.70;97.10
21612;DHT22;47005;52.292;13.452;2023-04-24T05:10:57;13.70;97.30
21612;DHT22;47005;52.292;13.452;2023-04-24T05:13:22;13.70;97.00
21612;DHT22;47005;52.292;13.452;2023-04-24T05:15:48;13.70;97.30
21612;DHT22;47005;52.292;13.452;2023-04-24T05:18:14;13.70;97.50
21612;DHT22;47005;52.292;13.452;2023-04-24T05:20:40;13.70;97.60
21612;DHT22;47005;52.292;13.452;2023-04-24T05:23:08;13.70;97.60
21612;DHT22;47005;52.292;13.452;2023-04-24T05:25:33;13.70;97.20
21612;DHT22;47005;52.292;13.452;2023-04-24T05:28:01;13.70;97.30
21612;DHT22;47005;52.292;13.452;2023-04-24T05:30:27;13.70;97.50
21612;DHT22;47005;52.292;13.452;2023-04-24T05:32:52;13.70;97.60
21612;DHT22;47005;52.292;13.452;2023-04-24T05:35:18;13.70;97.90
21612;DHT22;47005;52.292;13.452;2023-04-24T05:37:44;13.70;97.50
21612;DHT22;47005;52.292;13.452;2023-04-24T05:40:10;13.80;97.50
21612;DHT22;47005;52.292;13.452;2023-04-24T05:42:36;13.80;98.20
21612;DHT22;47005;52.292;13.452;2023-04-24T05:45:02;13.80;97.90
21612;DHT22;47005;52.292;13.452;2023-04-24T05:47:28;13.80;97.70
21612;DHT22;47005;52.292;13.452;2023-04-24T05:49:53;13.80;97.80
21612;DHT22;47005;52.292;13.452;2023-04-24T05:52:19;13.80;97.80
21612;DHT22;47005;52.292;13.452;2023-04-24T05:54:45;13.80;97.80
21612;DHT22;47005;52.292;13.452;2023-04-24T05:57:11;13.80;97.80
21612;DHT22;47005;52.292;13.452;2023-04-24T05:59:37;13.80;98.00
21612;DHT22;47005;52.292;13.452;2023-04-24T06:02:07;13.90;98.00
21612;DHT22;47005;52.292;13.452;2023-04-24T06:04:32;13.90;98.00
21612;DHT22;47005;52.292;13.452;2023-04-24T06:06:59;13.90;97.80
21612;DHT22;47005;52.292;13.452;2023-04-24T06:09:25;13.90;97.90
21612;DHT22;47005;52.292;13.452;2023-04-24T06:11:51;13.90;98.00
21612;DHT22;47005;52.292;13.452;2023-04-24T06:14:20;13.90;97.70
21612;DHT22;47005;52.292;13.452;2023-04-24T06:16:46;13.90;97.80
21612;DHT22;47005;52.292;13.452;2023-04-24T06:19:12;13.90;97.70
21612;DHT22;47005;52.292;13.452;2023-04-24T06:21:37;14.00;97.80
21612;DHT22;47005;52.292;13.452;2023-04-24T06:24:03;13.90;97.60
21612;DHT22;47005;52.292;13.452;2023-04-24T06:26:29;13.90;97.50
21612;DHT22;47005;52.292;13.452;2023-04-24T06:28:55;14.00;97.60
21612;DHT22;47005;52.292;13.452;2023-04-24T06:31:21;14.00;97.60
21612;DHT22;47005;52.292;13.452;2023-04-24T06:33:48;14.00;97.70
21612;DHT22;47005;52.292;13.452;2023-04-24T06:36:14;14.10;97.60
21612;DHT22;47005;52.292;13.452;2023-04-24T06:38:39;14.10;97.40
21612;DHT22;47005;52.292;13.452;2023-04-24T06:41:05;14.20;97.20
21612;DHT22;47005;52.292;13.452;2023-04-24T06:43:31;14.20;97.20
21612;DHT22;47005;52.292;13.452;2023-04-24T06:45:58;14.30;96.80
21612;DHT22;47005;52.292;13.452;2023-04-24T06:48:24;14.30;97.20
21612;DHT22;47005;52.292;13.452;2023-04-24T06:50:51;14.40;97.10
21612;DHT22;47005;52.292;13.452;2023-04-24T06:53:17;14.50;96.90
21612;DHT22;47005;52.292;13.452;2023-04-24T06:55:43;14.50;96.80
21612;DHT22;47005;52.292;13.452;2023-04-24T06:58:10;14.50;96.70
21612;DHT22;47005;52.292;13.452;2023-04-24T07:00:36;14.60;96.70
21612;DHT22;47005;52.292;13.452;2023-04-24T07:03:03;14.60;96.40
21612;DHT22;47005;52.292;13.452;2023-04-24T07:05:31;14.60;96.20
21612;DHT22;47005;52.292;13.452;2023-04-24T07:07:56;14.70;95.80
21612;DHT22;47005;52.292;13.452;2023-04-24T07:10:24;14.60;95.70
21612;DHT22;47005;52.292;13.452;2023-04-24T07:12:50;14.60;95.70
21612;DHT22;47005;52.292;13.452;2023-04-24T07:15:15;14.70;95.90
21612;DHT22;47005;52.292;13.452;2023-04-24T07:17:41;14.70;95.10
21612;DHT22;47005;52.292;13.452;2023-04-24T07:20:10;14.70;95.20
21612;DHT22;47005;52.292;13.452;2023-04-24T07:22:39;14.70;95.30
21612;DHT22;47005;52.292;13.452;2023-04-24T07:25:06;14.70;95.20
21612;DHT22;47005;52.292;13.452;2023-04-24T07:27:32;14.70;95.20
21612;DHT22;47005;52.292;13.452;2023-04-24T07:29:58;14.80;94.80
21612;DHT22;47005;52.292;13.452;2023-04-24T07:32:24;14.80;95.00
21612;DHT22;47005;52.292;13.452;2023-04-24T07:34:49;14.80;95.30
21612;DHT22;47005;52.292;13.452;2023-04-24T07:37:15;14.80;94.40
21612;DHT22;47005;52.292;13.452;2023-04-24T07:39:40;14.80;94.40
21612;DHT22;47005;52.292;13.452;2023-04-24T07:42:06;14.80;94.20
21612;DHT22;47005;52.292;13.452;2023-04-24T07:44:32;14.80;94.40
21612;DHT22;47005;52.292;13.452;2023-04-24T07:46:57;14.90;94.20
21612;DHT22;47005;52.292;13.452;2023-04-24T07:49:23;14.90;93.20
21612;DHT22;47005;52.292;13.452;2023-04-24T07:51:49;14.90;93.50
21612;DHT22;47005;52.292;13.452;2023-04-24T07:54:18;14.90;93.60
21612;DHT22;47005;52.292;13.452;2023-04-24T07:56:44;15.00;93.60
21612;DHT22;47005;52.292;13.452;2023-04-24T07:59:10;15.00;92.90
21612;DHT22;47005;52.292;13.452;2023-04-24T08:01:36;15.10;93.10
21612;DHT22;47005;52.292;13.452;2023-04-24T08:04:02;15.10;93.00
21612;DHT22;47005;52.292;13.452;2023-04-24T08:06:27;15.10;93.30
21612;DHT22;47005;52.292;13.452;2023-04-24T08:08:56;15.10;93.00
21612;DHT22;47005;52.292;13.452;2023-04-24T08:11:22;15.20;93.10
21612;DHT22;47005;52.292;13.452;2023-04-24T08:13:47;15.20;93.20
21612;DHT22;47005;52.292;13.452;2023-04-24T08:16:13;15.30;93.30
21612;DHT22;47005;52.292;13.452;2023-04-24T08:18:39;15.30;93.50
21612;DHT22;47005;52.292;13.452;2023-04-24T08:21:05;15.40;93.80
21612;DHT22;47005;52.292;13.452;2023-04-24T08:23:30;15.40;93.70
21612;DHT22;47005;52.292;13.452;2023-04-24T08:25:56;15.50;93.70
21612;DHT22;47005;52.292;13.452;2023-04-24T08:28:23;15.60;93.80
21612;DHT22;47005;52.292;13.452;2023-04-24T08:30:49;15.70;93.60
21612;DHT22;47005;52.292;13.452;2023-04-24T08:33:23;15.70;93.20
21612;DHT22;47005;52.292;13.452;2023-04-24T08:35:49;15.80;93.40
21612;DHT22;47005;52.292;13.452;2023-04-24T08:38:15;15.80;93.50
21612;DHT22;47005;52.292;13.452;2023-04-24T08:40:41;15.90;93.20
21612;DHT22;47005;52.292;13.452;2023-04-24T08:43:07;15.90;93.10
21612;DHT22;47005;52.292;13.452;2023-04-24T08:45:33;16.00;92.90
21612;DHT22;47005;52.292;13.452;2023-04-24T08:47:59;16.00;92.90
21612;DHT22;47005;52.292;13.452;2023-04-24T08:50:25;16.10;92.80
21612;DHT22;47005;52.292;13.452;2023-04-24T08:52:52;16.10;92.60
21612;DHT22;47005;52.292;13.452;2023-04-24T08:55:24;16.10;92.70
21612;DHT22;47005;52.292;13.452;2023-04-24T08:57:52;16.20;92.80
21612;DHT22;47005;52.292;13.452;2023-04-24T09:00:21;16.20;92.90
21612;DHT22;47005;52.292;13.452;2023-04-24T09:02:49;16.30;92.60
21612;DHT22;47005;52.292;13.452;2023-04-24T09:05:17;16.30;92.90
21612;DHT22;47005;52.292;13.452;2023-04-24T09:07:45;16.30;93.30
21612;DHT22;47005;52.292;13.452;2023-04-24T09:10:15;16.40;93.10
21612;DHT22;47005;52.292;13.452;2023-04-24T09:12:41;16.40;93.00
21612;DHT22;47005;52.292;13.452;2023-04-24T09:15:08;16.40;92.90
21612;DHT22;47005;52.292;13.452;2023-04-24T09:17:34;16.40;92.90
21612;DHT22;47005;52.292;13.452;2023-04-24T09:20:01;16.40;92.00
21612;DHT22;47005;52.292;13.452;2023-04-24T09:22:30;16.40;92.20
21612;DHT22;47005;52.292;13.452;2023-04-24T09:25:07;16.40;91.90
21612;DHT22;47005;52.292;13.452;2023-04-24T09:27:33;16.40;91.90
21612;DHT22;47005;52.292;13.452;2023-04-24T09:30:00;16.40;91.40
21612;DHT22;47005;52.292;13.452;2023-04-24T09:32:26;16.50;91.50
21612;DHT22;47005;52.292;13.452;2023-04-24T09:37:35;16.50;91.10
21612;DHT22;47005;52.292;13.452;2023-04-24T09:40:27;16.50;91.40
21612;DHT22;47005;52.292;13.452;2023-04-24T09:42:54;16.50;91.10
21612;DHT22;47005;52.292;13.452;2023-04-24T09:45:22;16.50;90.70
21612;DHT22;47005;52.292;13.452;2023-04-24T09:47:53;16.50;90.80
21612;DHT22;47005;52.292;13.452;2023-04-24T09:50:19;16.50;91.10
21612;DHT22;47005;52.292;13.452;2023-04-24T09:53:02;16.60;91.00
21612;DHT22;47005;52.292;13.452;2023-04-24T09:55:29;16.60;90.90
21612;DHT22;47005;52.292;13.452;2023-04-24T09:57:56;16.60;90.90
21612;DHT22;47005;52.292;13.452;2023-04-24T10:00:26;16.60;90.80
21612;DHT22;47005;52.292;13.452;2023-04-24T10:03:00;16.50;90.50
21612;DHT22;47005;52.292;13.452;2023-04-24T10:05:30;16.50;90.70
21612;DHT22;47005;52.292;13.452;2023-04-24T10:08:00;16.60;90.90
21612;DHT22;47005;52.292;13.452;2023-04-24T10:10:26;16.50;90.30
21612;DHT22;47005;52.292;13.452;2023-04-24T10:12:52;16.60;90.20
21612;DHT22;47005;52.292;13.452;2023-04-24T10:15:20;16.60;90.30
21612;DHT22;47005;52.292;13.452;2023-04-24T10:17:50;16.60;89.60
21612;DHT22;47005;52.292;13.452;2023-04-24T10:20:23;16.60;89.20
21612;DHT22;47005;52.292;13.452;2023-04-24T10:22:51;16.60;89.10
21612;DHT22;47005;52.292;13.452;2023-04-24T10:25:22;16.60;89.70
21612;DHT22;47005;52.292;13.452;2023-04-24T10:27:50;16.60;90.10
21612;DHT22;47005;52.292;13.452;2023-04-24T10:30:17;16.70;90.00
21612;DHT22;47005;52.292;13.452;2023-04-24T10:32:44;16.70;90.00
21612;DHT22;47005;52.292;13.452;2023-04-24T10:35:12;16.80;89.50
21612;DHT22;47005;52.292;13.452;2023-04-24T10:37:54;16.80;90.20
21612;DHT22;47005;52.292;13.452;2023-04-24T10:40:33;16.80;89.90
21612;DHT22;47005;52.292;13.452;2023-04-24T10:43:01;16.80;88.60
21612;DHT22;47005;52.292;13.452;2023-04-24T10:45:27;16.80;89.60
21612;DHT22;47005;52.292;13.452;2023-04-24T10:47:57;16.80;89.40
21612;DHT22;47005;52.292;13.452;2023-04-24T10:50:26;16.90;89.60
21612;DHT22;47005;52.292;13.452;2023-04-24T10:52:52;16.90;90.10
21612;DHT22;47005;52.292;13.452;2023-04-24T10:56:15;17.00;89.80
21612;DHT22;47005;52.292;13.452;2023-04-24T10:58:49;17.00;90.00
21612;DHT22;47005;52.292;13.452;2023-04-24T11:01:32;17.10;88.60
21612;DHT22;47005;52.292;13.452;2023-04-24T11:04:03;17.10;89.00
21612;DHT22;47005;52.292;13.452;2023-04-24T11:09:05;17.30;88.50
21612;DHT22;47005;52.292;13.452;2023-04-24T11:11:32;17.30;87.20
21612;DHT22;47005;52.292;13.452;2023-04-24T11:21:47;17.50;86.80
21612;DHT22;47005;52.292;13.452;2023-04-24T11:27:21;17.40;87.10
21612;DHT22;47005;52.292;13.452;2023-04-24T11:30:02;17.30;91.00
21612;DHT22;47005;52.292;13.452;2023-04-24T11:40:02;17.00;92.90
21612;DHT22;47005;52.292;13.452;2023-04-24T11:42:36;17.00;92.50
21612;DHT22;47005;52.292;13.452;2023-04-24T11:45:08;17.00;92.60
21612;DHT22;47005;52.292;13.452;2023-04-24T11:47:33;17.10;92.60
21612;DHT22;47005;52.292;13.452;2023-04-24T11:50:00;17.10;91.60
21612;DHT22;47005;52.292;13.452;2023-04-24T11:52:27;17.10;90.30
21612;DHT22;47005;52.292;13.452;2023-04-24T11:54:53;17.20;88.90
21612;DHT22;47005;52.292;13.452;2023-04-24T11:57:23;17.20;89.80
21612;DHT22;47005;52.292;13.452;2023-04-24T11:59:49;17.30;88.20
21612;DHT22;47005;52.292;13.452;2023-04-24T12:02:23;17.30;87.30
21612;DHT22;47005;52.292;13.452;2023-04-24T12:04:48;17.40;87.90
21612;DHT22;47005;52.292;13.452;2023-04-24T12:07:14;17.40;87.50
21612;DHT22;47005;52.292;13.452;2023-04-24T12:09:57;17.50;86.70
21612;DHT22;47005;52.292;13.452;2023-04-24T12:12:26;17.50;85.50
21612;DHT22;47005;52.292;13.452;2023-04-24T12:14:56;17.60;84.60
21612;DHT22;47005;52.292;13.452;2023-04-24T12:17:31;17.70;85.50
21612;DHT22;47005;52.292;13.452;2023-04-24T12:20:02;17.70;83.30
21612;DHT22;47005;52.292;13.452;2023-04-24T12:25:10;17.80;77.80
21612;DHT22;47005;52.292;13.452;2023-04-24T12:27:36;17.80;76.10
21612;DHT22;47005;52.292;13.452;2023-04-24T12:30:04;17.80;73.20
21612;DHT22;47005;52.292;13.452;2023-04-24T12:32:31;17.90;74.80
21612;DHT22;47005;52.292;13.452;2023-04-24T12:34:58;17.90;73.90
21612;DHT22;47005;52.292;13.452;2023-04-24T12:37:32;17.90;74.50
21612;DHT22;47005;52.292;13.452;2023-04-24T12:42:32;18.00;69.40
21612;DHT22;47005;52.292;13.452;2023-04-24T12:44:59;18.00;71.20
21612;DHT22;47005;52.292;13.452;2023-04-24T12:47:26;18.10;69.20
21612;DHT22;47005;52.292;13.452;2023-04-24T12:49:52;18.20;69.30
21612;DHT22;47005;52.292;13.452;2023-04-24T12:52:22;18.20;68.40
21612;DHT22;47005;52.292;13.452;2023-04-24T12:54:52;18.20;69.50
21612;DHT22;47005;52.292;13.452;2023-04-24T12:57:18;18.20;68.70
21612;DHT22;47005;52.292;13.452;2023-04-24T12:59:44;18.20;66.40
21612;DHT22;47005;52.292;13.452;2023-04-24T13:02:11;18.30;65.20
21612;DHT22;47005;52.292;13.452;2023-04-24T13:04:37;18.20;61.90
21612;DHT22;47005;52.292;13.452;2023-04-24T13:07:02;18.30;64.10
21612;DHT22;47005;52.292;13.452;2023-04-24T13:09:30;18.40;65.70
21612;DHT22;47005;52.292;13.452;2023-04-24T13:11:56;18.60;63.40
21612;DHT22;47005;52.292;13.452;2023-04-24T13:14:23;18.90;63.90
21612;DHT22;47005;52.292;13.452;2023-04-24T13:16:49;19.10;62.20
21612;DHT22;47005;52.292;13.452;2023-04-24T13:19:14;19.40;62.50
21612;DHT22;47005;52.292;13.452;2023-04-24T13:21:40;19.60;61.10
21612;DHT22;47005;52.292;13.452;2023-04-24T13:24:07;19.80;60.30
21612;DHT22;47005;52.292;13.452;2023-04-24T13:26:35;20.10;57.70
21612;DHT22;47005;52.292;13.452;2023-04-24T13:29:01;20.50;56.30
21612;DHT22;47005;52.292;13.452;2023-04-24T13:31:26;20.80;57.50
21612;DHT22;47005;52.292;13.452;2023-04-24T13:33:52;21.00;56.40
21612;DHT22;47005;52.292;13.452;2023-04-24T13:36:17;21.30;56.60
21612;DHT22;47005;52.292;13.452;2023-04-24T13:38:46;21.50;56.10
21612;DHT22;47005;52.292;13.452;2023-04-24T13:41:12;21.80;57.60
21612;DHT22;47005;52.292;13.452;2023-04-24T13:43:37;22.00;54.60
21612;DHT22;47005;52.292;13.452;2023-04-24T13:46:03;22.20;54.90
21612;DHT22;47005;52.292;13.452;2023-04-24T13:48:30;22.40;53.10
21612;DHT22;47005;52.292;13.452;2023-04-24T13:50:55;22.50;53.90
21612;DHT22;47005;52.292;13.452;2023-04-24T13:53:21;22.50;50.00
21612;DHT22;47005;52.292;13.452;2023-04-24T13:55:47;22.60;52.50
21612;DHT22;47005;52.292;13.452;2023-04-24T13:58:13;22.60;52.80
21612;DHT22;47005;52.292;13.452;2023-04-24T14:00:39;22.40;51.50
21612;DHT22;47005;52.292;13.452;2023-04-24T14:03:04;22.40;53.50
21612;DHT22;47005;52.292;13.452;2023-04-24T14:05:30;22.30;54.20
21612;DHT22;47005;52.292;13.452;2023-04-24T14:07:56;22.20;51.80
21612;DHT22;47005;52.292;13.452;2023-04-24T14:10:22;22.00;51.30
21612;DHT22;47005;52.292;13.452;2023-04-24T14:12:47;21.90;51.40
21612;DHT22;47005;52.292;13.452;2023-04-24T14:15:13;21.80;53.20
21612;DHT22;47005;52.292;13.452;2023-04-24T14:17:39;21.80;53.00
21612;DHT22;47005;52.292;13.452;2023-04-24T14:20:05;21.70;52.90
21612;DHT22;47005;52.292;13.452;2023-04-24T14:22:32;21.80;55.40
21612;DHT22;47005;52.292;13.452;2023-04-24T14:24:58;21.90;53.10
21612;DHT22;47005;52.292;13.452;2023-04-24T14:27:24;21.90;52.90
21612;DHT22;47005;52.292;13.452;2023-04-24T14:29:50;21.80;50.60
21612;DHT22;47005;52.292;13.452;2023-04-24T14:32:16;21.80;52.30
21612;DHT22;47005;52.292;13.452;2023-04-24T14:34:41;21.70;52.00
21612;DHT22;47005;52.292;13.452;2023-04-24T14:37:07;21.60;53.50
21612;DHT22;47005;52.292;13.452;2023-04-24T14:39:33;21.60;52.40
21612;DHT22;47005;52.292;13.452;2023-04-24T14:42:00;21.70;53.30
21612;DHT22;47005;52.292;13.452;2023-04-24T14:44:26;21.60;51.80
21612;DHT22;47005;52.292;13.452;2023-04-24T14:46:52;21.60;51.70
21612;DHT22;47005;52.292;13.452;2023-04-24T14:49:19;21.70;53.40
21612;DHT22;47005;52.292;13.452;2023-04-24T14:51:44;21.70;51.80
21612;DHT22;47005;52.292;13.452;2023-04-24T14:54:10;21.80;51.50
21612;DHT22;47005;52.292;13.452;2023-04-24T14:56:36;21.80;51.70
21612;DHT22;47005;52.292;13.452;2023-04-24T14:59:02;21.80;52.30
21612;DHT22;47005;52.292;13.452;2023-04-24T15:01:28;21.60;51.90
21612;DHT22;47005;52.292;13.452;2023-04-24T15:03:53;21.60;53.40
21612;DHT22;47005;52.292;13.452;2023-04-24T15:06:19;21.50;53.10
21612;DHT22;47005;52.292;13.452;2023-04-24T15:08:45;21.30;52.80
21612;DHT22;47005;52.292;13.452;2023-04-24T15:11:11;21.10;53.10
21612;DHT22;47005;52.292;13.452;2023-04-24T15:13:37;21.00;51.80
21612;DHT22;47005;52.292;13.452;2023-04-24T15:16:03;20.80;51.90
21612;DHT22;47005;52.292;13.452;2023-04-24T15:18:29;20.80;53.80
21612;DHT22;47005;52.292;13.452;2023-04-24T15:20:55;20.80;52.10
21612;DHT22;47005;52.292;13.452;2023-04-24T15:23:21;20.80;52.80
21612;DHT22;47005;52.292;13.452;2023-04-24T15:25:47;20.80;52.60
21612;DHT22;47005;52.292;13.452;2023-04-24T15:28:13;20.70;53.20
21612;DHT22;47005;52.292;13.452;2023-04-24T15:30:39;20.70;52.90
21612;DHT22;47005;52.292;13.452;2023-04-24T15:33:04;20.60;53.10
21612;DHT22;47005;52.292;13.452;2023-04-24T15:35:30;20.40;53.10
21612;DHT22;47005;52.292;13.452;2023-04-24T15:37:56;20.30;54.40
21612;DHT22;47005;52.292;13.452;2023-04-24T15:40:22;20.20;54.20
21612;DHT22;47005;52.292;13.452;2023-04-24T15:42:47;20.00;54.30